Welcome to our new website - Welkom op onze vernieuwde website - Bienvenue sur notre nouveau site web - Willkommen auf unserer neuen Website
Check our progress frequently. Prüfen Sie unsere Fortschritte regelmäßig. Consultez notre progression fréquemment. Komt u straks nog eens terug

Bezoek ook deze websites:

Template documentation
and downloads

And another site



Mist van: 22-09-2020 03:00 tot: 09:00 waarschuwing voor: Mist niveau: Geel info button

METAR rapporten vliegvelden

   
EHDL - Deelen Rnlafb, Netherlands
Afstand tot: ZW 55 km
Gewijzigd: 22-09-2020 05:25
Helder  
Helder  
   Wind: ZO 1.9 km/h
Wind: ZO 1.9 km/h
Temperatuur: 6°C
Dauwpunt: 6°C
Vochtigheid: 100%
Barometer: 1012 hPa
Bewolking: Helder
Zicht: meer dan 10 km
Bewolking: Helder
EHDL 220325Z AUTO 13001KT 9999 NCD 06/06 Q1012 BLU
EHLE - Lelystad, Netherlands
Afstand tot: W 64 km
Gewijzigd: 22-09-2020 05:25
Mist, Grotendeels bewolkt  
Mist, Grotendeels bewolkt  
   Wind: Westen 1.9 km/h
Wind: Westen 1.9 km/h
Temperatuur: 9°C
Dauwpunt: 9°C
Vochtigheid: 100%
Barometer: 1012 hPa
Bewolking: Grotendeels bewolkt
Zicht: 0 km
Bewolking: Grotendeels bewolkt,
Licht bewolkt 1500 ft
EHLE 220325Z AUTO 28001KT 0100 FG BKN000 FEW015CB 09/09 Q1012
ETWM - Meppen, Germany
Afstand tot: ONO 69 km
Gewijzigd: 22-09-2020 05:20
  
  
   Wind: Kalm
Wind: Kalm
Temperatuur: 7°C
Dauwpunt: 6°C
Vochtigheid: 93%
Barometer: 1012 hPa
ETWM 220320Z AUTO 00000KT //// // ////// 07/06 Q1012 ///
EHGG - Groningen/Eelde, Netherlands
Afstand tot: N 79 km
Gewijzigd: 22-09-2020 05:25
Mist, Licht bewolkt  
Mist, Licht bewolkt  
   Wind: varieert 3.7 km/h
Wind: varieert 3.7 km/h
Temperatuur: 5°C
Dauwpunt: 5°C
Vochtigheid: 100%
Barometer: 1011 hPa
Bewolking: Licht bewolkt
Zicht: 0 km
Bewolking: Licht bewolkt
EHGG 220325Z AUTO VRB02KT 0300 R05/0225N FG FEW000 05/05 Q1011
EDDG - Muenster/Osnabru, Germany
Afstand tot: OZO 90 km
Gewijzigd: 22-09-2020 05:20
Helder  
Helder  
   Wind: varieert 3.7 km/h
Wind: varieert 3.7 km/h
Temperatuur: 8°C
Dauwpunt: 7°C
Vochtigheid: 93%
Barometer: 1012 hPa
Zicht: meer dan 10 km
Bewolking: Helder
EDDG 220320Z VRB02KT CAVOK 08/07 Q1012 NOSIG
EDLV - Niederrhein, Germany
Afstand tot: ZZW 92 km
Gewijzigd: 22-09-2020 05:20
Helder  
Helder  
   Wind: Kalm
Wind: Kalm
Temperatuur: 10°C
Dauwpunt: 9°C
Vochtigheid: 94%
Barometer: 1012 hPa
Zicht: meer dan 10 km
Bewolking: Helder
EDLV 220320Z 00000KT CAVOK 10/09 Q1012

Script ontwikkeld door  Saratoga-weather.org Aangepast voor de template door  Weerstation Leuven

U vindt ons ook hier:

Het Weer Aktueel

European Weather Network

Weather Underground

Benelux Weer Netwerk

Apparatuur in gebruik:

Weerstation
Davis VP2

Weerprogramma
Meteobridge

Weercomputer
Meteobridge Pro+

Webleverancier
vip.nl

Davis VP2

Meteobridge

Meteobridge Pro+

vip.nl